Time;durP1;ratioP1;P1;durP2;ratioP2;P2;SDS_P1;SDS_P2;PMS_P1;PMS_P2;Temp;Humidity;BMP_temperature;BMP_pressure;BME280_temperature;BME280_humidity;BME280_pressure;Samples;Min_cycle;Max_cycle;Signal;HPM_P1;HPM_P2
2022/06/30 00:04:50;;;;;;;9.20;8.00;;;19.80;99.90;;;;;;5003093;28;20080;-95
2022/06/30 00:07:52;;;;;;;;;;;;;;;;;;;;;
2022/06/30 00:10:44;;;;;;;;;;;;;;;;;;;;;
2022/06/30 00:13:46;;;;;;;6.78;5.75;;;19.80;99.90;;;;;;4978972;28;20048;-95
2022/06/30 00:16:22;;;;;;;9.00;4.75;;;19.80;99.90;;;;;;4999218;28;20052;-94
2022/06/30 00:19:20;;;;;;;8.05;4.70;;;19.80;99.90;;;;;;4992724;28;20102;-95
2022/06/30 00:21:58;;;;;;;;;;;19.80;99.90;;;;;;5029456;28;20092;-96
2022/06/30 00:25:13;;;;;;;4.43;4.03;;;19.90;99.90;;;;;;4973226;28;20522;-95
2022/06/30 00:27:57;;;;;;;6.28;3.63;;;19.90;99.90;;;;;;4980331;28;20045;-94
2022/06/30 00:30:39;;;;;;;3.55;3.25;;;19.90;99.90;;;;;;4991240;28;20054;-96
2022/06/30 00:33:54;;;;;;;;;;;;;;;;;;;;;
2022/06/30 00:36:51;;;;;;;;;;;;;;;;;;;;;
2022/06/30 00:39:31;;;;;;;3.38;3.03;;;19.80;99.90;;;;;;5047191;28;20057;-96
2022/06/30 00:42:11;;;;;;;6.85;3.28;;;19.70;99.90;;;;;;5008630;28;20111;-96
2022/06/30 00:44:55;;;;;;;;;;;;;;;;;;;;;
2022/06/30 00:47:52;;;;;;;;;;;;;;;;;;;;;
2022/06/30 00:50:28;;;;;;;5.38;2.80;;;19.70;99.90;;;;;;5029355;28;20124;-96
2022/06/30 00:53:17;;;;;;;4.40;3.05;;;19.60;99.90;;;;;;4983983;28;20065;-96
2022/06/30 00:56:28;;;;;;;5.07;3.33;;;19.60;99.90;;;;;;5002443;28;20058;-96
2022/06/30 00:59:19;;;;;;;4.93;3.20;;;19.40;99.90;;;;;;4955810;28;20054;-94
2022/06/30 01:02:25;;;;;;;5.47;3.47;;;19.50;99.90;;;;;;4946766;28;20058;-96
2022/06/30 01:05:19;;;;;;;3.30;3.00;;;19.40;99.90;;;;;;4979574;28;20049;-96
2022/06/30 01:08:22;;;;;;;4.70;3.50;;;19.40;99.90;;;;;;5000533;28;20088;-94
2022/06/30 01:17:33;;;;;;;4.70;4.15;;;19.30;99.90;;;;;;5031347;28;20038;-93
2022/06/30 01:20:40;;;;;;;4.30;3.80;;;19.20;99.90;;;;;;4993826;28;20049;-96
2022/06/30 01:23:43;;;;;;;3.95;3.65;;;19.10;99.90;;;;;;5006387;28;20049;-95
2022/06/30 01:30:16;;;;;;;6.20;4.00;;;19.10;99.90;;;;;;4868525;28;20077;-95
2022/06/30 01:33:45;;;;;;;4.78;4.15;;;19.00;99.90;;;;;;4863164;29;20107;-96
2022/06/30 01:36:48;;;;;;;4.18;3.78;;;18.90;99.90;;;;;;4810219;29;20070;-94
2022/06/30 01:47:09;;;;;;;4.60;3.95;;;18.70;99.90;;;;;;4870438;29;20064;-95
2022/06/30 01:52:34;;;;;;;4.03;3.63;;;18.60;99.90;;;;;;4879454;29;20123;-96
2022/06/30 01:58:00;;;;;;;5.68;3.30;;;18.60;99.90;;;;;;4944951;29;20137;-95
2022/06/30 02:01:09;;;;;;;5.35;3.70;;;18.40;99.90;;;;;;4937583;29;20230;-96
2022/06/30 02:03:41;;;;;;;5.80;3.33;;;18.50;99.90;;;;;;4942048;28;20047;-88
2022/06/30 02:07:06;;;;;;;6.15;3.60;;;18.50;99.90;;;;;;4894050;29;20052;-93
2022/06/30 02:10:32;;;;;;;;;;;;;;;;;;;;;
2022/06/30 02:14:04;;;;;;;6.47;3.17;;;18.40;99.90;;;;;;4871623;29;20075;-96
2022/06/30 02:17:07;;;;;;;;;;;;;;;;;;;;;
2022/06/30 02:20:31;;;;;;;;;;;;;;;;;;;;;
2022/06/30 02:23:56;;;;;;;6.75;3.53;;;18.40;99.90;;;;;;4925904;29;20060;-96
2022/06/30 02:26:42;;;;;;;;;;;;;;;;;;;;;
2022/06/30 02:29:14;;;;;;;3.30;2.85;;;18.40;99.90;;;;;;4926189;29;20052;-96
2022/06/30 02:34:52;;;;;;;;;;;18.40;99.90;;;;;;4989075;28;20047;-96
2022/06/30 02:37:36;;;;;;;3.38;2.80;;;18.30;99.90;;;;;;4981910;28;19928;-95
2022/06/30 02:40:42;;;;;;;5.00;3.23;;;18.30;99.90;;;;;;4967600;28;20157;-93
2022/06/30 02:47:00;;;;;;;;;;;;;;;;;;;;;
2022/06/30 02:49:42;;;;;;;;;;;;;;;;;;;;;
2022/06/30 02:52:20;;;;;;;;;;;;;;;;;;;;;
2022/06/30 02:55:44;;;;;;;;;;;;;;;;;;;;;
2022/06/30 02:58:36;;;;;;;5.22;3.20;;;18.30;99.90;;;;;;4970041;28;20121;-96
2022/06/30 03:04:40;;;;;;;5.95;2.83;;;18.20;99.90;;;;;;4982550;28;19960;-96
2022/06/30 03:11:29;;;;;;;3.38;3.03;;;18.20;99.90;;;;;;4937532;28;20078;-96
2022/06/30 03:14:36;;;;;;;;;;;;;;;;;;;;;
2022/06/30 03:32:02;;;;;;;5.53;3.25;;;18.00;99.90;;;;;;4888107;29;20060;-95
2022/06/30 03:38:49;;;;;;;5.38;3.55;;;18.00;99.90;;;;;;4847283;29;20064;-96
2022/06/30 03:41:56;;;;;;;3.47;3.17;;;18.00;99.90;;;;;;4894396;29;20111;-94
2022/06/30 03:48:41;;;;;;;;;;;;;;;;;;;;;
2022/06/30 03:51:35;;;;;;;4.95;3.50;;;18.00;99.90;;;;;;4838805;29;20066;-96
2022/06/30 04:04:51;;;;;;;5.10;3.55;;;17.90;99.90;;;;;;4849242;29;20136;-96
2022/06/30 04:20:00;;;;;;;;;;;;;;;;;;;;;
2022/06/30 04:22:50;;;;;;;7.50;4.30;;;17.80;99.90;;;;;;4898457;29;20071;-96
2022/06/30 04:25:19;;;;;;;8.80;4.20;;;17.90;99.90;;;;;;4909170;29;20060;-96
2022/06/30 04:28:12;;;;;;;;;;;;;;;;;;;;;
2022/06/30 04:35:42;;;;;;;4.53;3.65;;;18.00;99.90;;;;;;4893650;29;21823;-95
2022/06/30 04:42:45;;;;;;;6.28;3.85;;;18.10;99.90;;;;;;4945896;29;20038;-96
2022/06/30 04:45:35;;;;;;;4.57;3.88;;;18.10;99.90;;;;;;4898249;28;20196;-96
2022/06/30 04:48:20;;;;;;;6.07;4.05;;;18.10;99.90;;;;;;4943293;28;20062;-94
2022/06/30 04:51:24;;;;;;;;;;;;;;;;;;;;;
2022/06/30 04:58:02;;;;;;;8.02;4.40;;;18.30;99.90;;;;;;4954776;28;20054;-95
2022/06/30 05:04:53;;;;;;;5.35;4.25;;;18.50;99.90;;;;;;5003086;28;20046;-96
2022/06/30 05:08:25;;;;;;;6.53;3.97;;;18.60;99.90;;;;;;4961384;28;20070;-96
2022/06/30 05:14:24;;;;;;;;;;;;;;;;;;;;;
2022/06/30 05:17:21;;;;;;;4.72;4.13;;;19.00;99.90;;;;;;4968283;28;20100;-96
2022/06/30 05:20:05;;;;;;;6.50;4.03;;;19.20;99.90;;;;;;4969866;28;20049;-96
2022/06/30 05:22:49;;;;;;;4.60;4.10;;;19.30;99.90;;;;;;4990513;28;20053;-96
2022/06/30 05:29:02;;;;;;;6.90;3.97;;;19.60;99.90;;;;;;4994037;28;20076;-96
2022/06/30 05:35:34;;;;;;;5.35;3.67;;;19.90;99.90;;;;;;4950085;29;20077;-96
2022/06/30 05:38:39;;;;;;;6.00;3.95;;;20.10;99.90;;;;;;4901016;29;20060;-96
2022/06/30 05:41:38;;;;;;;6.50;4.20;;;20.20;99.90;;;;;;4972280;28;20137;-95
2022/06/30 05:44:54;;;;;;;7.35;3.78;;;20.30;99.90;;;;;;4957031;28;20069;-96
2022/06/30 06:02:11;;;;;;;;;;;;;;;;;;;;;
2022/06/30 06:08:05;;;;;;;4.20;3.42;;;21.20;99.90;;;;;;4924457;29;20428;-96
2022/06/30 06:11:25;;;;;;;4.13;3.67;;;21.30;99.90;;;;;;4933265;29;20062;-95
2022/06/30 06:14:24;;;;;;;5.80;3.90;;;21.40;99.90;;;;;;4876140;29;20365;-96
2022/06/30 06:17:39;;;;;;;;;;;;;;;;;;;;;
2022/06/30 06:21:41;;;;;;;;;;;;;;;;;;;;;
2022/06/30 06:30:34;;;;;;;4.88;4.03;;;22.00;99.90;;;;;;4921235;29;20266;-95
2022/06/30 10:20:39;;;;;;;;;;;;;;;;;;;;;
2022/06/30 10:24:21;;;;;;;;;;;;;;;;;;;;;
2022/06/30 10:27:39;;;;;;;9.57;8.68;;;25.50;99.90;;;;;;4791950;29;20795;-91
2022/06/30 10:30:39;;;;;;;10.23;9.25;;;25.60;99.90;;;;;;4747281;30;20065;-94
2022/06/30 10:33:57;;;;;;;;;;;;;;;;;;;;;
2022/06/30 17:17:29;;;;;;;9.73;7.05;;;24.80;99.90;;;;;;4485746;27;20048;-39
2022/06/30 17:20:07;;;;;;;10.63;8.40;;;24.70;99.90;;;;;;4875964;29;20053;-41
2022/06/30 17:22:40;;;;;;;12.88;7.57;;;24.60;99.90;;;;;;4888437;29;20064;-39
2022/06/30 17:25:24;;;;;;;10.07;8.60;;;24.70;99.90;;;;;;4890791;29;20113;-40
2022/06/30 17:27:51;;;;;;;11.15;8.93;;;24.70;99.90;;;;;;4862817;29;20072;-39
2022/06/30 17:30:28;;;;;;;13.80;9.80;;;24.60;99.90;;;;;;4867610;29;20069;-39
2022/06/30 17:33:05;;;;;;;11.32;8.80;;;24.40;99.90;;;;;;4854961;29;20053;-41
2022/06/30 17:35:31;;;;;;;9.88;8.82;;;24.30;99.90;;;;;;4873175;29;20052;-39
2022/06/30 17:38:00;;;;;;;13.82;9.93;;;24.30;99.90;;;;;;4838012;29;20045;-41
2022/06/30 17:40:39;;;;;;;10.48;8.35;;;24.20;99.90;;;;;;4863796;29;20131;-40
2022/06/30 17:43:16;;;;;;;10.27;9.00;;;24.20;99.90;;;;;;4867608;29;20053;-40
2022/06/30 17:48:28;;;;;;;9.82;8.45;;;24.00;99.90;;;;;;4749537;27;20042;-41
2022/06/30 17:51:19;;;;;;;9.02;6.78;;;24.00;99.90;;;;;;4885101;29;20163;-41
2022/06/30 17:53:47;;;;;;;9.93;6.72;;;23.90;99.90;;;;;;4858687;29;20609;-45
2022/06/30 17:56:13;;;;;;;13.68;7.45;;;23.70;99.90;;;;;;4854877;29;20064;-39
2022/06/30 17:58:43;;;;;;;10.47;7.00;;;23.70;99.90;;;;;;4852429;29;20052;-41
2022/06/30 18:01:09;;;;;;;8.85;7.25;;;23.50;99.90;;;;;;4857520;29;20634;-39
2022/06/30 18:03:34;;;;;;;9.18;8.27;;;23.50;99.90;;;;;;4859438;29;20452;-39
2022/06/30 18:06:00;;;;;;;10.43;8.77;;;23.30;99.90;;;;;;4855954;29;20517;-39
2022/06/30 18:13:37;;;;;;;12.93;10.20;;;22.80;99.90;;;;;;4858890;29;20726;-39
2022/06/30 18:16:06;;;;;;;15.05;9.88;;;22.70;99.90;;;;;;4868752;29;20075;-38
2022/06/30 18:18:33;;;;;;;13.10;11.73;;;22.60;99.90;;;;;;4858310;29;20049;-39
2022/06/30 18:20:59;;;;;;;16.75;12.13;;;22.60;99.90;;;;;;4855429;29;20109;-39
2022/06/30 18:23:26;;;;;;;15.80;11.43;;;22.40;99.90;;;;;;4861918;29;20041;-39
2022/06/30 18:25:52;;;;;;;16.15;10.23;;;22.30;99.90;;;;;;4859449;29;20516;-40
2022/06/30 18:28:18;;;;;;;12.73;9.63;;;22.20;99.90;;;;;;4840191;29;20507;-39
2022/06/30 18:30:44;;;;;;;10.05;8.40;;;22.10;99.90;;;;;;4858447;29;20866;-41
2022/06/30 18:33:13;;;;;;;10.00;8.02;;;21.90;99.90;;;;;;4850953;29;20397;-40
2022/06/30 18:35:39;;;;;;;10.57;7.00;;;21.90;99.90;;;;;;4841643;29;20050;-39
2022/06/30 18:38:05;;;;;;;9.27;7.10;;;21.80;99.90;;;;;;4837276;29;20045;-39
2022/06/30 18:40:31;;;;;;;9.55;6.32;;;21.70;99.90;;;;;;4846440;29;20483;-38
2022/06/30 18:42:57;;;;;;;10.70;6.72;;;21.50;99.90;;;;;;4866475;29;20657;-39
2022/06/30 18:45:24;;;;;;;11.93;6.95;;;21.40;99.90;;;;;;4857238;29;20148;-38
2022/06/30 18:47:50;;;;;;;11.20;6.72;;;21.30;99.90;;;;;;4834513;29;20152;-41
2022/06/30 18:50:22;;;;;;;10.27;6.18;;;21.20;99.90;;;;;;4854567;29;20082;-40
2022/06/30 18:52:48;;;;;;;12.00;5.80;;;21.10;99.90;;;;;;4843928;29;20061;-42
2022/06/30 18:55:14;;;;;;;9.63;5.07;;;21.00;99.90;;;;;;4831666;29;20461;-42
2022/06/30 18:57:41;;;;;;;9.38;4.35;;;20.90;99.90;;;;;;4835281;29;20049;-42
2022/06/30 19:00:11;;;;;;;6.90;3.80;;;20.80;99.90;;;;;;4854069;29;20106;-40
2022/06/30 19:02:36;;;;;;;7.60;4.10;;;20.80;99.90;;;;;;4852064;29;20056;-42
2022/06/30 19:05:03;;;;;;;6.25;3.47;;;20.60;99.90;;;;;;4848378;29;20049;-41
2022/06/30 19:07:32;;;;;;;7.15;3.60;;;20.50;99.90;;;;;;4813309;29;20067;-40
2022/06/30 19:09:59;;;;;;;10.50;4.15;;;20.40;99.90;;;;;;4855139;29;20474;-41
2022/06/30 19:12:26;;;;;;;7.22;3.70;;;20.40;99.90;;;;;;4851223;29;20114;-41
2022/06/30 19:14:52;;;;;;;5.97;3.50;;;20.30;99.90;;;;;;4831344;29;20632;-41
2022/06/30 19:17:18;;;;;;;11.07;3.22;;;20.20;99.90;;;;;;4799141;29;20129;-41
2022/06/30 19:19:44;;;;;;;7.88;4.45;;;20.20;99.90;;;;;;4861574;29;20053;-41
2022/06/30 19:22:17;;;;;;;7.32;4.47;;;20.10;99.90;;;;;;4841483;29;20085;-41
2022/06/30 19:24:49;;;;;;;4.30;3.42;;;20.10;99.90;;;;;;4857108;29;20072;-42
2022/06/30 19:27:14;;;;;;;8.60;4.20;;;20.00;99.90;;;;;;4834847;29;20505;-41
2022/06/30 19:29:48;;;;;;;7.40;3.67;;;19.90;99.90;;;;;;4851713;29;20075;-42
2022/06/30 19:32:26;;;;;;;11.80;3.63;;;19.90;99.90;;;;;;4860297;29;20057;-42
2022/06/30 19:34:51;;;;;;;8.73;3.92;;;19.90;99.90;;;;;;4837331;29;20058;-42
2022/06/30 19:37:19;;;;;;;9.77;4.05;;;19.70;99.90;;;;;;4841396;29;20089;-41
2022/06/30 19:39:47;;;;;;;8.23;3.42;;;19.70;99.90;;;;;;4844803;29;20049;-42
2022/06/30 19:42:27;;;;;;;10.63;4.20;;;19.60;99.90;;;;;;4793666;29;20057;-41
2022/06/30 19:44:55;;;;;;;8.65;3.78;;;19.60;99.90;;;;;;4853641;29;20120;-39
2022/06/30 19:47:29;;;;;;;10.10;4.13;;;19.40;99.90;;;;;;4843626;29;20088;-41
2022/06/30 19:49:59;;;;;;;9.50;4.00;;;19.40;99.90;;;;;;4839263;29;20491;-42
2022/06/30 19:52:38;;;;;;;9.00;3.15;;;19.40;99.90;;;;;;4853035;29;20147;-41
2022/06/30 19:55:13;;;;;;;9.25;4.00;;;19.30;99.90;;;;;;4837985;29;20074;-42
2022/06/30 19:57:40;;;;;;;9.73;4.13;;;19.20;99.90;;;;;;4838349;29;20508;-42
2022/06/30 20:00:09;;;;;;;8.43;3.85;;;19.10;99.90;;;;;;4854850;29;20057;-43
2022/06/30 20:05:25;;;;;;;10.40;4.25;;;19.00;99.90;;;;;;4861589;29;20053;-43
2022/06/30 20:13:26;;;;;;;7.75;3.20;;;18.80;99.90;;;;;;4833495;29;20136;-41
2022/06/30 20:16:00;;;;;;;7.80;3.58;;;18.70;99.90;;;;;;4848440;29;20109;-41
2022/06/30 20:18:33;;;;;;;8.30;3.08;;;18.70;99.90;;;;;;4815204;29;20400;-41
2022/06/30 20:20:58;;;;;;;11.10;3.90;;;18.70;99.90;;;;;;4846004;29;20071;-41
2022/06/30 20:23:25;;;;;;;5.45;3.08;;;18.60;99.90;;;;;;4808674;29;20116;-44
2022/06/30 20:25:54;;;;;;;8.27;3.45;;;18.50;99.90;;;;;;4861746;29;20148;-41
2022/06/30 20:28:22;;;;;;;9.75;3.88;;;18.40;99.90;;;;;;4841396;29;20505;-43
2022/06/30 20:30:49;;;;;;;9.35;3.53;;;18.30;99.90;;;;;;4834043;29;20064;-42
2022/06/30 20:33:16;;;;;;;12.43;4.03;;;18.30;99.90;;;;;;4837450;29;20049;-41
2022/06/30 20:35:42;;;;;;;9.93;3.78;;;18.10;99.90;;;;;;4816615;29;20045;-43
2022/06/30 20:38:11;;;;;;;7.78;3.80;;;18.10;99.90;;;;;;4838243;29;20493;-42
2022/06/30 20:40:37;;;;;;;10.85;3.25;;;18.00;99.90;;;;;;4872552;29;20638;-41
2022/06/30 20:43:03;;;;;;;6.50;2.55;;;17.90;99.90;;;;;;4849120;29;20054;-40
2022/06/30 20:45:29;;;;;;;7.60;2.83;;;17.80;99.90;;;;;;4874763;29;20069;-40
2022/06/30 20:53:34;;;;;;;5.80;2.10;;;17.40;99.90;;;;;;4817114;29;20146;-40
2022/06/30 20:56:00;;;;;;;8.88;2.50;;;17.30;99.90;;;;;;4832897;29;20050;-39
2022/06/30 20:58:33;;;;;;;5.43;1.77;;;17.20;99.90;;;;;;4824295;29;20053;-40
2022/06/30 21:00:59;;;;;;;7.40;2.13;;;17.10;99.90;;;;;;4818805;29;20062;-39
2022/06/30 21:03:25;;;;;;;8.00;1.90;;;17.00;99.90;;;;;;4823100;29;20044;-39
2022/06/30 21:05:52;;;;;;;7.15;1.65;;;16.90;99.90;;;;;;4804400;29;20074;-38
2022/06/30 21:08:18;;;;;;;6.45;1.48;;;16.80;99.90;;;;;;4801323;29;20149;-40
2022/06/30 21:10:47;;;;;;;10.73;2.20;;;16.80;99.90;;;;;;4813675;29;20049;-39
2022/06/30 21:13:15;;;;;;;9.27;2.08;;;16.80;99.90;;;;;;4815633;29;20082;-41
2022/06/30 21:15:45;;;;;;;10.57;1.80;;;16.70;99.90;;;;;;4822070;29;20508;-40
2022/06/30 21:18:14;;;;;;;10.27;1.95;;;16.60;99.90;;;;;;4795721;29;20289;-39
2022/06/30 21:20:41;;;;;;;10.85;2.33;;;16.50;99.90;;;;;;4818019;29;20053;-39
2022/06/30 21:23:09;;;;;;;13.32;2.42;;;16.30;99.90;;;;;;4828349;29;20054;-39
2022/06/30 21:25:39;;;;;;;11.52;2.85;;;16.30;99.90;;;;;;4834675;29;20054;-40
2022/06/30 21:28:05;;;;;;;9.73;2.17;;;16.20;99.90;;;;;;4817281;29;20062;-40
2022/06/30 21:30:38;;;;;;;12.20;2.30;;;16.20;99.90;;;;;;4815169;29;20106;-39
2022/06/30 21:33:05;;;;;;;14.23;2.88;;;16.10;99.90;;;;;;4821834;29;20105;-40
2022/06/30 21:35:38;;;;;;;9.18;1.88;;;16.10;99.90;;;;;;4832058;29;20056;-39
2022/06/30 21:38:04;;;;;;;12.50;2.53;;;16.00;99.90;;;;;;4823590;29;20058;-40
2022/06/30 21:40:30;;;;;;;11.05;2.47;;;16.00;99.90;;;;;;4813890;29;20054;-38
2022/06/30 21:43:02;;;;;;;13.93;2.67;;;15.90;99.90;;;;;;4824968;29;20525;-40
2022/06/30 21:45:28;;;;;;;11.00;2.40;;;15.90;99.90;;;;;;4814141;29;20109;-40
2022/06/30 21:47:54;;;;;;;11.90;2.42;;;15.80;99.90;;;;;;4819442;29;20078;-38
2022/06/30 21:50:21;;;;;;;8.50;2.42;;;15.70;99.90;;;;;;4803203;29;20144;-40
2022/06/30 21:52:50;;;;;;;16.27;2.72;;;15.70;99.90;;;;;;4820437;29;20067;-38
2022/06/30 21:55:15;;;;;;;14.82;2.35;;;15.70;99.90;;;;;;4834755;29;20103;-37
2022/06/30 21:57:46;;;;;;;12.15;2.17;;;15.60;99.90;;;;;;4824671;29;20050;-39
2022/06/30 22:00:18;;;;;;;11.30;2.20;;;15.60;99.90;;;;;;4833147;29;20068;-39
2022/06/30 22:02:44;;;;;;;13.68;2.42;;;15.70;99.90;;;;;;4837032;29;20061;-39
2022/06/30 22:05:10;;;;;;;10.27;1.77;;;15.60;99.90;;;;;;4815265;29;20159;-40
2022/06/30 22:07:39;;;;;;;10.38;2.30;;;15.60;99.90;;;;;;4827877;29;20056;-41
2022/06/30 22:10:05;;;;;;;14.75;1.95;;;15.60;99.90;;;;;;4816913;29;20114;-39
2022/06/30 22:12:32;;;;;;;10.23;1.48;;;15.60;99.90;;;;;;4834552;29;20078;-39
2022/06/30 22:15:01;;;;;;;9.25;1.58;;;15.50;99.90;;;;;;4837618;29;20061;-40
2022/06/30 22:17:28;;;;;;;6.80;1.23;;;15.50;99.90;;;;;;4805021;29;20058;-39
2022/06/30 22:19:54;;;;;;;9.43;1.63;;;15.50;99.90;;;;;;4834738;29;20585;-40
2022/06/30 22:22:20;;;;;;;7.80;1.80;;;15.50;99.90;;;;;;4815077;29;20065;-40
2022/06/30 22:24:59;;;;;;;10.05;1.83;;;15.50;99.90;;;;;;4819584;29;20421;-40
2022/06/30 22:27:26;;;;;;;13.70;1.73;;;15.50;99.90;;;;;;4818203;29;20046;-39
2022/06/30 22:29:54;;;;;;;7.47;1.52;;;15.50;99.90;;;;;;4819814;29;20482;-40
2022/06/30 22:32:20;;;;;;;8.90;1.67;;;15.50;99.90;;;;;;4840242;29;20050;-40
2022/06/30 22:34:48;;;;;;;9.52;1.92;;;15.50;99.90;;;;;;4834923;29;20158;-39
2022/06/30 22:37:14;;;;;;;8.02;1.67;;;15.50;99.90;;;;;;4831066;29;20157;-40
2022/06/30 22:39:41;;;;;;;7.00;1.30;;;15.50;99.90;;;;;;4828104;29;20047;-39
2022/06/30 22:42:07;;;;;;;9.73;1.42;;;15.50;99.90;;;;;;4818282;29;20054;-39
2022/06/30 22:44:33;;;;;;;10.00;1.63;;;15.50;99.90;;;;;;4831920;29;20057;-39
2022/06/30 22:47:04;;;;;;;8.40;1.63;;;15.60;99.90;;;;;;4821912;29;20384;-40
2022/06/30 22:49:30;;;;;;;10.10;1.13;;;15.60;99.90;;;;;;4857634;29;20060;-40
2022/06/30 22:51:56;;;;;;;5.03;1.23;;;15.60;99.90;;;;;;4873670;29;20293;-39
2022/06/30 22:54:24;;;;;;;7.68;1.00;;;15.60;99.90;;;;;;4854605;29;20488;-40
2022/06/30 22:56:49;;;;;;;4.90;0.85;;;15.50;99.90;;;;;;4843250;29;20058;-42
2022/06/30 22:59:17;;;;;;;5.93;0.77;;;15.60;99.90;;;;;;4873979;29;20128;-41
2022/06/30 23:01:43;;;;;;;5.45;0.90;;;15.50;99.90;;;;;;4861230;29;20115;-41
2022/06/30 23:04:08;;;;;;;4.65;0.60;;;15.50;99.90;;;;;;4851373;29;20527;-39
2022/06/30 23:06:37;;;;;;;6.63;1.02;;;15.50;99.90;;;;;;4864268;29;20053;-39
2022/06/30 23:09:03;;;;;;;6.65;1.10;;;15.40;99.90;;;;;;4853066;29;20257;-39
2022/06/30 23:11:30;;;;;;;8.82;1.20;;;15.40;99.90;;;;;;4855756;29;20141;-39
2022/06/30 23:14:01;;;;;;;8.18;1.40;;;15.40;99.90;;;;;;4868261;29;20062;-39
2022/06/30 23:16:27;;;;;;;4.30;1.27;;;15.30;99.90;;;;;;4868956;29;20626;-39
2022/06/30 23:18:53;;;;;;;6.10;1.25;;;15.30;99.90;;;;;;4851794;29;20300;-39
2022/06/30 23:21:19;;;;;;;8.05;1.20;;;15.30;99.90;;;;;;4840546;29;20061;-39
2022/06/30 23:23:45;;;;;;;6.80;1.20;;;15.30;99.90;;;;;;4865938;29;20053;-38
2022/06/30 23:26:12;;;;;;;6.95;1.13;;;15.30;99.90;;;;;;4840870;29;20045;-38
2022/06/30 23:28:58;;;;;;;5.72;1.33;;;15.30;99.90;;;;;;4823904;29;20164;-38
2022/06/30 23:31:26;;;;;;;7.63;1.27;;;15.20;99.90;;;;;;4850890;29;20129;-38
2022/06/30 23:33:52;;;;;;;5.55;0.95;;;15.20;99.90;;;;;;4872859;29;20061;-39
2022/06/30 23:36:18;;;;;;;7.05;1.20;;;15.20;99.90;;;;;;4852175;29;20085;-41
2022/06/30 23:38:44;;;;;;;3.70;0.75;;;15.20;99.90;;;;;;4866798;29;20515;-39
2022/06/30 23:41:09;;;;;;;4.47;0.80;;;15.20;99.90;;;;;;4855508;29;20072;-39
2022/06/30 23:43:35;;;;;;;4.20;0.90;;;15.10;99.90;;;;;;4866154;29;20045;-39
2022/06/30 23:46:02;;;;;;;4.90;1.00;;;15.20;99.90;;;;;;4853899;29;20045;-40
2022/06/30 23:48:28;;;;;;;5.47;1.02;;;15.20;99.90;;;;;;4825719;29;20054;-40
2022/06/30 23:50:54;;;;;;;6.20;0.90;;;15.20;99.90;;;;;;4868568;29;20060;-40
2022/06/30 23:53:20;;;;;;;4.95;1.02;;;15.20;99.90;;;;;;4858370;29;20068;-40
2022/06/30 23:55:46;;;;;;;4.90;1.15;;;15.10;99.90;;;;;;4874554;29;20049;-40
2022/06/30 23:58:12;;;;;;;4.40;0.82;;;15.10;99.90;;;;;;4829548;29;20050;-40
